createdAt,value
2023-06-04T00:00:22.535Z,12.87
2023-06-04T00:03:06.142Z,12.76
2023-06-04T00:05:49.740Z,12.66
2023-06-04T00:08:33.307Z,12.67
2023-06-04T00:11:16.902Z,12.74
2023-06-04T00:14:01.665Z,12.69
2023-06-04T00:16:45.292Z,12.64
2023-06-04T00:19:29.366Z,12.59
2023-06-04T00:22:13.166Z,12.46
2023-06-04T00:24:56.687Z,12.67
2023-06-04T00:27:40.350Z,12.55
2023-06-04T00:30:23.961Z,12.46
2023-06-04T00:33:07.587Z,12.53
2023-06-04T00:35:51.317Z,12.47
2023-06-04T00:38:34.993Z,12.35
2023-06-04T00:41:18.635Z,12.26
2023-06-04T00:44:03.619Z,12.41
2023-06-04T00:46:48.877Z,12.29
2023-06-04T00:49:32.629Z,12.12
2023-06-04T00:52:17.526Z,12.18
2023-06-04T00:55:02.042Z,12.16
2023-06-04T00:57:45.865Z,12.14
2023-06-04T01:00:30.015Z,12.30
2023-06-04T01:03:24.076Z,12.10
2023-06-04T01:06:39.774Z,11.97
2023-06-04T01:09:24.202Z,11.98
2023-06-04T01:12:09.554Z,11.72
2023-06-04T01:14:53.153Z,11.69
2023-06-04T01:17:52.644Z,11.77
2023-06-04T01:20:48.237Z,11.61
2023-06-04T01:24:00.598Z,11.56
2023-06-04T01:26:44.798Z,11.54
2023-06-04T01:29:31.059Z,11.59
2023-06-04T01:32:14.691Z,11.35
2023-06-04T01:34:59.745Z,11.28
2023-06-04T01:37:43.295Z,11.32
2023-06-04T01:40:27.632Z,11.22
2023-06-04T01:43:11.475Z,11.31
2023-06-04T01:45:55.853Z,11.30
2023-06-04T01:48:40.273Z,11.37
2023-06-04T01:51:24.390Z,11.28
2023-06-04T01:54:08.088Z,11.10
2023-06-04T01:56:51.691Z,11.10
2023-06-04T01:59:37.653Z,11.12
2023-06-04T02:02:21.323Z,11.09
2023-06-04T02:05:09.777Z,10.99
2023-06-04T02:07:53.906Z,10.88
2023-06-04T02:10:37.519Z,10.75
2023-06-04T02:13:21.371Z,10.71
2023-06-04T02:16:05.296Z,10.78
2023-06-04T02:18:48.850Z,10.78
2023-06-04T02:21:32.423Z,10.75
2023-06-04T02:24:16.057Z,10.89
2023-06-04T02:26:59.657Z,10.80
2023-06-04T02:29:44.144Z,10.70
2023-06-04T02:32:27.962Z,10.65
2023-06-04T02:35:12.336Z,10.52
2023-06-04T02:37:57.759Z,10.59
2023-06-04T02:40:41.380Z,10.57
2023-06-04T02:43:24.918Z,10.49
2023-06-04T02:46:08.621Z,10.44
2023-06-04T02:48:52.236Z,10.48
2023-06-04T02:51:35.797Z,10.40
2023-06-04T02:54:19.408Z,10.32
2023-06-04T02:57:03.136Z,10.30
2023-06-04T02:59:46.708Z,10.34
2023-06-04T03:02:30.469Z,10.41
2023-06-04T03:05:19.117Z,10.50
2023-06-04T03:08:05.158Z,10.35
2023-06-04T03:10:48.937Z,10.30
2023-06-04T03:13:32.494Z,10.40
2023-06-04T03:16:16.593Z,10.22
2023-06-04T03:19:00.488Z,10.23
2023-06-04T03:21:44.120Z,10.26
2023-06-04T03:24:27.958Z,10.31
2023-06-04T03:27:12.185Z,10.58
2023-06-04T03:29:58.218Z,10.37
2023-06-04T03:32:42.216Z,10.49
2023-06-04T03:35:26.145Z,10.48
2023-06-04T03:38:09.965Z,10.43
2023-06-04T03:40:56.255Z,10.46
2023-06-04T03:43:40.869Z,10.37
2023-06-04T03:46:27.880Z,10.54
2023-06-04T03:49:15.203Z,10.35
2023-06-04T03:52:00.188Z,10.46
2023-06-04T03:54:44.228Z,10.42
2023-06-04T03:57:28.059Z,10.45
2023-06-04T04:00:13.354Z,10.55
2023-06-04T04:03:04.867Z,10.63
2023-06-04T04:05:48.995Z,10.89
2023-06-04T04:08:32.759Z,11.05
2023-06-04T04:11:17.746Z,11.15
2023-06-04T04:14:02.295Z,11.03
2023-06-04T04:16:46.378Z,11.24
2023-06-04T04:19:30.113Z,10.99
2023-06-04T04:22:14.342Z,11.05
2023-06-04T04:24:58.725Z,11.06
2023-06-04T04:27:42.550Z,11.36
2023-06-04T04:30:29.704Z,11.32
2023-06-04T04:33:16.922Z,11.36
2023-06-04T04:36:02.894Z,11.48
2023-06-04T04:38:47.135Z,11.36
2023-06-04T04:41:32.202Z,11.66
2023-06-04T04:44:16.528Z,11.59
2023-06-04T04:47:00.110Z,11.47
2023-06-04T04:49:43.881Z,11.48
2023-06-04T04:52:27.482Z,11.74
2023-06-04T04:55:13.052Z,11.73
2023-06-04T04:57:57.623Z,11.76
2023-06-04T05:00:42.820Z,11.97
2023-06-04T05:03:26.663Z,12.15
2023-06-04T05:06:11.297Z,12.19
2023-06-04T05:08:55.078Z,12.15
2023-06-04T05:11:38.717Z,12.18
2023-06-04T05:14:22.597Z,12.22
2023-06-04T05:17:08.162Z,12.19
2023-06-04T05:19:53.950Z,12.30
2023-06-04T05:22:37.840Z,12.47
2023-06-04T05:25:23.050Z,12.71
2023-06-04T05:28:08.062Z,12.75
2023-06-04T05:31:00.205Z,13.03
2023-06-04T05:33:49.099Z,13.04
2023-06-04T05:36:36.703Z,13.00
2023-06-04T05:39:25.408Z,13.18
2023-06-04T05:42:28.619Z,13.30
2023-06-04T05:45:12.250Z,13.37
2023-06-04T05:47:58.808Z,13.55
2023-06-04T05:50:45.297Z,13.87
2023-06-04T05:53:28.861Z,13.72
2023-06-04T05:56:12.587Z,13.88
2023-06-04T05:58:56.310Z,13.95
2023-06-04T06:01:42.168Z,14.06
2023-06-04T06:04:27.470Z,14.24
2023-06-04T06:07:11.541Z,14.36
2023-06-04T06:09:55.168Z,14.60
2023-06-04T06:12:38.938Z,14.52
2023-06-04T06:15:22.959Z,14.54
2023-06-04T06:18:08.181Z,14.74
2023-06-04T06:20:51.806Z,14.92
2023-06-04T06:23:35.467Z,15.01
2023-06-04T06:26:21.117Z,15.06
2023-06-04T06:29:08.274Z,15.18
2023-06-04T06:31:52.149Z,15.50
2023-06-04T06:34:35.764Z,15.59
2023-06-04T06:37:19.517Z,15.71
2023-06-04T06:40:03.147Z,15.73
2023-06-04T06:42:52.291Z,15.89
2023-06-04T06:45:37.884Z,15.78
2023-06-04T06:48:21.690Z,16.05
2023-06-04T06:51:05.370Z,16.07
2023-06-04T06:53:52.080Z,16.30
2023-06-04T06:56:35.718Z,16.37
2023-06-04T06:59:19.316Z,16.69
2023-06-04T07:02:03.049Z,16.52
2023-06-04T07:04:46.622Z,16.63
2023-06-04T07:07:30.215Z,16.78
2023-06-04T07:10:14.659Z,16.94
2023-06-04T07:12:58.326Z,17.00
2023-06-04T07:15:41.887Z,16.94
2023-06-04T07:18:25.515Z,17.23
2023-06-04T07:21:09.209Z,16.92
2023-06-04T07:23:53.109Z,17.24
2023-06-04T07:26:36.665Z,17.44
2023-06-04T07:29:20.370Z,17.63
2023-06-04T07:32:04.036Z,17.66
2023-06-04T07:34:47.667Z,17.55
2023-06-04T07:37:31.686Z,17.76
2023-06-04T07:40:15.276Z,17.96
2023-06-04T07:42:58.866Z,17.95
2023-06-04T07:45:42.464Z,18.05
2023-06-04T07:48:31.669Z,18.22
2023-06-04T07:51:15.613Z,18.62
2023-06-04T07:53:59.141Z,18.73
2023-06-04T07:56:42.658Z,18.68
2023-06-04T07:59:26.261Z,19.11
2023-06-04T08:02:09.812Z,19.44
2023-06-04T08:04:53.881Z,19.87
2023-06-04T08:07:37.533Z,20.17
2023-06-04T08:10:21.327Z,20.17
2023-06-04T08:13:04.945Z,20.68
2023-06-04T08:15:49.089Z,20.22
2023-06-04T08:18:52.709Z,19.97
2023-06-04T08:21:43.194Z,20.91
2023-06-04T08:24:46.860Z,21.01
2023-06-04T08:27:50.326Z,19.36
2023-06-04T08:30:54.084Z,19.55
2023-06-04T08:33:51.962Z,20.81
2023-06-04T08:36:36.345Z,21.07
2023-06-04T08:39:19.955Z,21.56
2023-06-04T08:42:11.457Z,22.04
2023-06-04T08:44:55.970Z,22.54
2023-06-04T08:47:50.766Z,19.48
2023-06-04T08:50:34.901Z,19.45
2023-06-04T08:53:19.440Z,21.79
2023-06-04T08:56:03.261Z,22.58
2023-06-04T08:58:52.492Z,22.52
2023-06-04T09:01:40.152Z,22.87
2023-06-04T09:04:24.980Z,23.19
2023-06-04T09:07:11.653Z,23.52
2023-06-04T09:10:08.134Z,23.83
2023-06-04T09:13:02.421Z,24.07
2023-06-04T09:15:46.529Z,24.50
2023-06-04T09:18:30.918Z,24.54
2023-06-04T09:21:14.491Z,23.99
2023-06-04T09:23:59.473Z,24.62
2023-06-04T09:26:43.077Z,24.71
2023-06-04T09:29:27.825Z,24.96
2023-06-04T09:32:13.620Z,25.28
2023-06-04T09:35:15.346Z,25.49
2023-06-04T09:37:59.407Z,25.22
2023-06-04T09:40:46.512Z,23.05
2023-06-04T09:43:30.591Z,22.83
2023-06-04T09:46:16.875Z,24.67
2023-06-04T09:49:07.760Z,24.64
2023-06-04T09:51:52.241Z,24.16
2023-06-04T09:54:41.267Z,23.66
2023-06-04T09:57:30.850Z,21.92
2023-06-04T10:00:24.283Z,23.46
2023-06-04T10:03:16.438Z,22.63
2023-06-04T10:06:03.507Z,21.39
2023-06-04T10:08:49.471Z,23.78
2023-06-04T10:11:39.519Z,24.65
2023-06-04T10:14:28.872Z,25.21
2023-06-04T10:17:14.637Z,25.29
2023-06-04T10:20:01.084Z,26.11
2023-06-04T10:22:44.899Z,24.26
2023-06-04T10:25:29.811Z,24.94
2023-06-04T10:28:13.598Z,26.08
2023-06-04T10:30:57.179Z,26.34
2023-06-04T10:33:41.410Z,26.87
2023-06-04T10:36:26.468Z,25.36
2023-06-04T10:39:10.088Z,26.06
2023-06-04T10:42:04.101Z,25.61
2023-06-04T10:44:55.705Z,26.15
2023-06-04T10:47:42.676Z,23.73
2023-06-04T10:50:26.425Z,24.23
2023-06-04T10:53:09.988Z,26.11
2023-06-04T10:55:53.596Z,26.69
2023-06-04T10:58:37.167Z,27.19
2023-06-04T11:01:30.552Z,25.70
2023-06-04T11:04:24.817Z,26.35
2023-06-04T11:07:10.497Z,27.06
2023-06-04T11:09:56.800Z,27.27
2023-06-04T11:12:54.404Z,25.35
2023-06-04T11:15:45.921Z,23.83
2023-06-04T11:18:29.606Z,24.98
2023-06-04T11:21:15.897Z,26.87
2023-06-04T11:24:00.548Z,26.25
2023-06-04T11:26:53.564Z,26.32
2023-06-04T11:29:44.064Z,26.55
2023-06-04T11:32:27.705Z,26.77
2023-06-04T11:35:14.403Z,26.52
2023-06-04T11:38:00.046Z,25.83
2023-06-04T11:40:44.889Z,25.81
2023-06-04T11:43:30.343Z,27.34
2023-06-04T11:46:14.455Z,27.89
2023-06-04T11:48:58.190Z,24.71
2023-06-04T11:51:53.256Z,27.08
2023-06-04T11:54:39.807Z,28.08
2023-06-04T11:57:24.360Z,28.25
2023-06-04T12:00:10.588Z,25.56
2023-06-04T12:02:57.860Z,27.23
2023-06-04T12:05:41.556Z,25.63
2023-06-04T12:08:25.106Z,27.48
2023-06-04T12:11:08.780Z,28.38
2023-06-04T12:13:52.454Z,28.55
2023-06-04T12:16:36.216Z,28.26
2023-06-04T12:19:19.762Z,28.80
2023-06-04T12:22:06.693Z,29.08
2023-06-04T12:25:00.326Z,24.91
2023-06-04T12:27:50.278Z,26.94
2023-06-04T12:30:39.531Z,24.90
2023-06-04T12:33:23.147Z,24.28
2023-06-04T12:36:07.035Z,26.79
2023-06-04T12:38:51.147Z,27.06
2023-06-04T12:41:35.975Z,27.65
2023-06-04T12:44:19.633Z,27.43
2023-06-04T12:47:04.476Z,27.50
2023-06-04T12:49:48.153Z,26.77
2023-06-04T12:52:31.924Z,28.34
2023-06-04T12:55:15.871Z,28.80
2023-06-04T12:58:00.821Z,28.74
2023-06-04T13:00:46.806Z,28.77
2023-06-04T13:03:32.152Z,28.32
2023-06-04T13:06:16.115Z,28.17
2023-06-04T13:08:59.834Z,26.99
2023-06-04T13:11:44.805Z,27.15
2023-06-04T13:14:34.220Z,24.21
2023-06-04T13:17:22.412Z,24.06
2023-06-04T13:20:08.064Z,25.97
2023-06-04T13:22:51.993Z,24.14
2023-06-04T13:25:36.519Z,23.44
2023-06-04T13:28:20.578Z,24.98
2023-06-04T13:31:04.587Z,24.18
2023-06-04T13:33:48.214Z,25.30
2023-06-04T13:36:31.922Z,26.64
2023-06-04T13:39:15.833Z,26.66
2023-06-04T13:41:59.790Z,26.77
2023-06-04T13:44:43.783Z,27.20
2023-06-04T13:47:27.479Z,26.49
2023-06-04T13:50:11.773Z,27.50
2023-06-04T13:52:55.339Z,28.25
2023-06-04T13:55:39.009Z,28.25
2023-06-04T13:58:22.571Z,27.93
2023-06-04T14:01:07.093Z,25.31
2023-06-04T14:03:51.566Z,27.38
2023-06-04T14:06:37.449Z,28.19
2023-06-04T14:09:21.541Z,28.79
2023-06-04T14:12:08.616Z,28.78
2023-06-04T14:14:52.781Z,28.79
2023-06-04T14:17:36.861Z,28.39
2023-06-04T14:20:20.485Z,28.67
2023-06-04T14:23:04.201Z,28.17
2023-06-04T14:25:47.815Z,28.66
2023-06-04T14:28:31.497Z,28.99
2023-06-04T14:31:15.211Z,28.73
2023-06-04T14:33:58.996Z,28.09
2023-06-04T14:36:42.659Z,24.51
2023-06-04T14:39:28.043Z,25.51
2023-06-04T14:42:11.605Z,25.98
2023-06-04T14:44:55.579Z,27.76
2023-06-04T14:47:39.183Z,27.78
2023-06-04T14:50:23.780Z,27.48
2023-06-04T14:53:08.696Z,28.49
2023-06-04T14:55:53.997Z,28.39
2023-06-04T14:58:37.884Z,28.33
2023-06-04T15:01:24.172Z,27.16
2023-06-04T15:04:07.977Z,27.75
2023-06-04T15:06:51.571Z,28.00
2023-06-04T15:09:35.295Z,27.44
2023-06-04T15:12:20.914Z,28.09
2023-06-04T15:15:06.868Z,27.64
2023-06-04T15:17:51.726Z,28.24
2023-06-04T15:20:35.463Z,28.19
2023-06-04T15:23:19.167Z,28.20
2023-06-04T15:26:02.778Z,28.61
2023-06-04T15:28:46.365Z,28.46
2023-06-04T15:31:29.970Z,28.48
2023-06-04T15:34:13.733Z,28.59
2023-06-04T15:36:57.480Z,29.04
2023-06-04T15:39:41.897Z,28.10
2023-06-04T15:42:25.952Z,28.28
2023-06-04T15:45:10.422Z,26.70
2023-06-04T15:47:54.001Z,25.36
2023-06-04T15:50:37.756Z,24.84
2023-06-04T15:53:21.712Z,24.92
2023-06-04T15:56:05.567Z,25.93
2023-06-04T15:58:49.142Z,25.64
2023-06-04T16:01:33.257Z,24.47
2023-06-04T16:04:19.447Z,25.45
2023-06-04T16:07:03.138Z,25.23
2023-06-04T16:09:46.814Z,24.03
2023-06-04T16:12:30.413Z,25.21
2023-06-04T16:15:14.055Z,23.97
2023-06-04T16:17:57.760Z,25.36
2023-06-04T16:20:41.482Z,25.47
2023-06-04T16:23:25.266Z,26.45
2023-06-04T16:26:10.060Z,26.75
2023-06-04T16:28:53.764Z,26.06
2023-06-04T16:31:37.544Z,25.14
2023-06-04T16:34:21.210Z,24.72
2023-06-04T16:37:05.042Z,24.05
2023-06-04T16:39:48.582Z,24.30
2023-06-04T16:42:32.153Z,25.29
2023-06-04T16:45:15.825Z,24.07
2023-06-04T16:47:59.393Z,23.81
2023-06-04T16:50:43.000Z,23.33
2023-06-04T16:53:26.661Z,24.82
2023-06-04T16:56:11.067Z,24.87
2023-06-04T16:58:55.832Z,24.83
2023-06-04T17:01:40.832Z,23.96
2023-06-04T17:04:24.502Z,23.72
2023-06-04T17:07:08.148Z,24.72
2023-06-04T17:09:51.812Z,25.02
2023-06-04T17:12:37.752Z,25.74
2023-06-04T17:15:21.544Z,26.01
2023-06-04T17:18:11.589Z,26.08
2023-06-04T17:20:55.401Z,26.17
2023-06-04T17:23:40.941Z,26.06
2023-06-04T17:26:24.952Z,25.42
2023-06-04T17:29:08.757Z,25.97
2023-06-04T17:31:52.431Z,25.80
2023-06-04T17:34:36.547Z,25.50
2023-06-04T17:37:22.779Z,25.66
2023-06-04T17:40:08.245Z,25.80
2023-06-04T17:42:51.854Z,25.51
2023-06-04T17:45:35.562Z,25.86
2023-06-04T17:48:19.174Z,25.92
2023-06-04T17:51:04.728Z,26.06
2023-06-04T17:53:48.402Z,25.67
2023-06-04T17:56:32.234Z,25.62
2023-06-04T17:59:15.800Z,25.45
2023-06-04T18:01:59.339Z,25.34
2023-06-04T18:04:42.914Z,24.91
2023-06-04T18:07:26.715Z,25.10
2023-06-04T18:10:12.035Z,24.48
2023-06-04T18:12:58.158Z,24.72
2023-06-04T18:15:41.923Z,24.55
2023-06-04T18:18:25.689Z,24.23
2023-06-04T18:21:10.683Z,24.49
2023-06-04T18:23:54.528Z,24.27
2023-06-04T18:26:38.218Z,23.94
2023-06-04T18:29:21.783Z,24.39
2023-06-04T18:32:05.586Z,24.30
2023-06-04T18:34:49.387Z,24.21
2023-06-04T18:37:33.007Z,24.24
2023-06-04T18:40:18.284Z,23.92
2023-06-04T18:43:02.040Z,24.02
2023-06-04T18:45:45.817Z,23.92
2023-06-04T18:48:29.475Z,23.71
2023-06-04T18:51:14.165Z,23.68
2023-06-04T18:54:00.243Z,23.80
2023-06-04T18:56:45.409Z,23.67
2023-06-04T18:59:28.943Z,23.46
2023-06-04T19:02:12.642Z,23.29
2023-06-04T19:04:56.291Z,23.17
2023-06-04T19:07:41.010Z,23.07
2023-06-04T19:10:24.737Z,22.70
2023-06-04T19:13:08.360Z,22.60
2023-06-04T19:15:53.951Z,22.57
2023-06-04T19:18:37.595Z,22.66
2023-06-04T19:21:21.174Z,22.40
2023-06-04T19:24:06.034Z,21.81
2023-06-04T19:26:52.002Z,21.78
2023-06-04T19:29:35.709Z,21.99
2023-06-04T19:32:19.411Z,21.47
2023-06-04T19:35:03.292Z,21.46
2023-06-04T19:37:46.899Z,21.19
2023-06-04T19:40:30.751Z,20.94
2023-06-04T19:43:14.350Z,20.77
2023-06-04T19:46:02.700Z,20.72
2023-06-04T19:48:46.446Z,20.55
2023-06-04T19:51:30.386Z,20.44
2023-06-04T19:54:14.306Z,20.25
2023-06-04T19:56:57.940Z,20.32
2023-06-04T19:59:41.904Z,19.97
2023-06-04T20:02:26.428Z,20.09
2023-06-04T20:05:11.963Z,19.75
2023-06-04T20:07:55.968Z,19.59
2023-06-04T20:10:39.608Z,19.50
2023-06-04T20:13:23.358Z,19.68
2023-06-04T20:16:07.353Z,19.84
2023-06-04T20:18:51.449Z,19.77
2023-06-04T20:21:36.161Z,19.38
2023-06-04T20:24:21.008Z,19.38
2023-06-04T20:27:04.956Z,19.05
2023-06-04T20:29:48.719Z,19.42
2023-06-04T20:32:32.307Z,19.08
2023-06-04T20:35:15.990Z,19.00
2023-06-04T20:38:02.247Z,19.22
2023-06-04T20:40:46.125Z,18.85
2023-06-04T20:43:55.204Z,18.91
2023-06-04T20:46:38.796Z,18.86
2023-06-04T20:49:22.362Z,18.64
2023-06-04T20:52:06.185Z,18.40
2023-06-04T20:54:49.897Z,18.09
2023-06-04T20:57:33.713Z,17.96
2023-06-04T21:00:17.856Z,17.84
2023-06-04T21:03:01.564Z,17.82
2023-06-04T21:05:46.279Z,17.70
2023-06-04T21:08:30.136Z,17.60
2023-06-04T21:11:13.730Z,17.65
2023-06-04T21:13:58.004Z,17.68
2023-06-04T21:16:41.727Z,17.87
2023-06-04T21:19:26.302Z,17.64
2023-06-04T21:22:12.869Z,17.71
2023-06-04T21:24:56.460Z,17.50
2023-06-04T21:27:40.498Z,17.68
2023-06-04T21:30:24.052Z,17.57
2023-06-04T21:33:08.042Z,17.45
2023-06-04T21:35:51.793Z,17.25
2023-06-04T21:38:35.524Z,17.07
2023-06-04T21:41:19.457Z,17.01
2023-06-04T21:44:03.147Z,16.87
2023-06-04T21:46:47.243Z,16.84
2023-06-04T21:49:31.015Z,16.84
2023-06-04T21:52:25.029Z,16.90
2023-06-04T21:55:09.771Z,16.82
2023-06-04T21:57:53.360Z,16.96
2023-06-04T22:00:36.956Z,16.99
2023-06-04T22:03:20.728Z,16.77
2023-06-04T22:06:04.926Z,16.47
2023-06-04T22:08:48.548Z,16.65
2023-06-04T22:11:32.598Z,16.36
2023-06-04T22:14:16.497Z,16.30
2023-06-04T22:17:00.131Z,16.37
2023-06-04T22:19:43.775Z,16.35
2023-06-04T22:22:27.387Z,16.33
2023-06-04T22:25:11.173Z,16.23
2023-06-04T22:27:54.737Z,16.22
2023-06-04T22:30:38.366Z,15.98
2023-06-04T22:33:21.987Z,16.01
2023-06-04T22:36:05.940Z,16.19
2023-06-04T22:38:49.539Z,15.93
2023-06-04T22:41:33.188Z,16.07
2023-06-04T22:44:16.773Z,15.93
2023-06-04T22:47:00.575Z,15.90
2023-06-04T22:49:44.223Z,15.98
2023-06-04T22:52:28.452Z,15.76
2023-06-04T22:55:13.067Z,15.71
2023-06-04T22:57:56.697Z,15.75
2023-06-04T23:00:42.729Z,15.71
2023-06-04T23:03:26.810Z,15.60
2023-06-04T23:06:10.457Z,15.51
2023-06-04T23:08:54.269Z,15.42
2023-06-04T23:11:37.831Z,15.39
2023-06-04T23:14:21.719Z,15.40
2023-06-04T23:17:05.899Z,15.58
2023-06-04T23:19:49.505Z,15.38
2023-06-04T23:22:33.119Z,15.15
2023-06-04T23:25:16.769Z,15.18
2023-06-04T23:28:00.393Z,15.20
2023-06-04T23:30:44.047Z,15.20
2023-06-04T23:33:27.627Z,15.11
2023-06-04T23:36:11.280Z,14.98
2023-06-04T23:38:54.877Z,14.50
2023-06-04T23:41:38.458Z,14.66
2023-06-04T23:44:22.048Z,14.73
2023-06-04T23:47:06.204Z,14.74
2023-06-04T23:49:49.794Z,14.77
2023-06-04T23:52:33.371Z,14.64
2023-06-04T23:55:17.040Z,14.71
2023-06-04T23:58:01.665Z,14.79
